createdAt,value
2022-08-17T00:00:44.030Z,19.88
2022-08-17T00:01:53.253Z,19.88
2022-08-17T00:03:06.375Z,19.88
2022-08-17T00:04:11.674Z,19.85
2022-08-17T00:05:15.708Z,19.85
2022-08-17T00:06:29.391Z,19.86
2022-08-17T00:07:31.105Z,19.90
2022-08-17T00:08:36.906Z,19.92
2022-08-17T00:09:38.659Z,19.95
2022-08-17T00:10:41.920Z,19.96
2022-08-17T00:12:35.510Z,19.96
2022-08-17T00:13:12.510Z,19.96
2022-08-17T00:14:17.745Z,19.95
2022-08-17T00:15:21.598Z,19.93
2022-08-17T00:16:55.893Z,19.92
2022-08-17T00:17:53.206Z,19.90
2022-08-17T00:19:07.527Z,19.89
2022-08-17T00:20:12.269Z,19.89
2022-08-17T00:21:17.080Z,19.89
2022-08-17T00:22:35.122Z,19.89
2022-08-17T00:23:39.369Z,19.91
2022-08-17T00:24:48.660Z,19.93
2022-08-17T00:25:50.694Z,19.96
2022-08-17T00:26:52.405Z,19.96
2022-08-17T00:27:54.133Z,19.96
2022-08-17T00:28:56.938Z,19.95
2022-08-17T00:29:58.627Z,19.92
2022-08-17T00:31:01.116Z,19.90
2022-08-17T00:33:11.959Z,19.88
2022-08-17T00:33:30.686Z,19.87
2022-08-17T00:34:32.720Z,19.85
2022-08-17T00:35:35.433Z,19.83
2022-08-17T00:36:37.797Z,19.84
2022-08-17T00:37:40.309Z,19.83
2022-08-17T00:38:42.350Z,19.84
2022-08-17T00:39:44.316Z,19.86
2022-08-17T00:40:50.028Z,19.86
2022-08-17T00:41:53.580Z,19.85
2022-08-17T00:42:55.499Z,19.84
2022-08-17T00:44:03.232Z,19.84
2022-08-17T00:45:11.164Z,19.86
2022-08-17T00:46:28.174Z,19.88
2022-08-17T00:47:30.173Z,19.90
2022-08-17T00:48:32.468Z,19.91
2022-08-17T00:49:34.214Z,19.91
2022-08-17T00:50:37.335Z,19.91
2022-08-17T00:51:54.993Z,19.90
2022-08-17T00:52:58.788Z,19.88
2022-08-17T00:54:19.066Z,19.85
2022-08-17T00:55:22.296Z,19.83
2022-08-17T00:56:31.605Z,19.82
2022-08-17T00:57:40.217Z,19.82
2022-08-17T00:58:42.109Z,19.83
2022-08-17T01:00:01.986Z,19.83
2022-08-17T01:01:08.613Z,19.84
2022-08-17T01:02:15.237Z,19.87
2022-08-17T01:03:27.657Z,19.88
2022-08-17T01:04:32.416Z,19.89
2022-08-17T01:05:38.736Z,19.91
2022-08-17T01:06:49.445Z,19.91
2022-08-17T01:07:51.738Z,19.90
2022-08-17T01:08:57.586Z,19.87
2022-08-17T01:10:06.071Z,19.83
2022-08-17T01:11:08.362Z,19.79
2022-08-17T01:12:12.144Z,19.78
2022-08-17T01:13:14.277Z,19.77
2022-08-17T01:14:16.056Z,19.76
2022-08-17T01:15:17.884Z,19.76
2022-08-17T01:16:26.725Z,19.75
2022-08-17T01:17:28.546Z,19.75
2022-08-17T01:18:32.277Z,19.76
2022-08-17T01:19:39.254Z,19.76
2022-08-17T01:20:48.970Z,19.77
2022-08-17T01:22:02.726Z,19.77
2022-08-17T01:23:04.814Z,19.76
2022-08-17T01:24:07.393Z,19.74
2022-08-17T01:25:12.698Z,19.71
2022-08-17T01:26:14.703Z,19.69
2022-08-17T01:27:18.454Z,19.69
2022-08-17T01:28:52.568Z,19.69
2022-08-17T01:29:51.119Z,19.71
2022-08-17T01:30:58.066Z,19.74
2022-08-17T01:32:06.035Z,19.78
2022-08-17T01:33:11.377Z,19.82
2022-08-17T01:34:16.554Z,19.88
2022-08-17T01:35:18.243Z,19.95
2022-08-17T01:36:20.236Z,20.00
2022-08-17T01:37:31.177Z,20.03
2022-08-17T01:38:37.208Z,20.04
2022-08-17T01:39:45.728Z,20.02
2022-08-17T01:40:57.564Z,20.00
2022-08-17T01:42:09.403Z,19.96
2022-08-17T01:43:25.034Z,19.92
2022-08-17T01:44:27.812Z,19.89
2022-08-17T01:45:33.805Z,19.86
2022-08-17T01:46:38.559Z,19.86
2022-08-17T01:47:41.749Z,19.86
2022-08-17T01:48:47.261Z,19.88
2022-08-17T01:49:49.265Z,19.89
2022-08-17T01:50:51.973Z,19.89
2022-08-17T01:51:54.742Z,19.90
2022-08-17T01:53:05.977Z,19.91
2022-08-17T01:54:12.828Z,19.91
2022-08-17T01:55:25.880Z,19.91
2022-08-17T01:56:32.575Z,19.94
2022-08-17T01:57:34.371Z,19.94
2022-08-17T01:58:37.858Z,19.95
2022-08-17T01:59:39.722Z,19.95
2022-08-17T02:00:59.465Z,19.95
2022-08-17T02:02:04.845Z,19.95
2022-08-17T02:03:08.246Z,19.94
2022-08-17T02:04:11.325Z,19.95
2022-08-17T02:05:13.187Z,19.95
2022-08-17T02:06:27.284Z,19.94
2022-08-17T02:07:29.980Z,19.93
2022-08-17T02:08:39.165Z,19.92
2022-08-17T02:09:57.362Z,19.90
2022-08-17T02:11:04.302Z,19.89
2022-08-17T02:12:38.865Z,19.90
2022-08-17T02:13:35.834Z,19.90
2022-08-17T02:14:37.550Z,19.91
2022-08-17T02:15:41.483Z,19.91
2022-08-17T02:16:43.385Z,19.91
2022-08-17T02:17:45.304Z,19.91
2022-08-17T02:18:46.997Z,19.92
2022-08-17T02:19:48.766Z,19.94
2022-08-17T02:20:50.430Z,19.97
2022-08-17T02:21:54.069Z,20.00
2022-08-17T02:22:55.842Z,20.02
2022-08-17T02:23:57.622Z,20.04
2022-08-17T02:25:02.573Z,20.05
2022-08-17T02:26:05.753Z,20.03
2022-08-17T02:27:07.611Z,20.00
2022-08-17T02:28:10.280Z,19.97
2022-08-17T02:29:12.079Z,19.91
2022-08-17T02:31:01.816Z,19.87
2022-08-17T02:31:37.918Z,19.83
2022-08-17T02:32:40.757Z,19.80
2022-08-17T02:33:43.791Z,19.78
2022-08-17T02:34:46.044Z,19.77
2022-08-17T02:35:48.082Z,19.77
2022-08-17T02:36:49.734Z,19.77
2022-08-17T02:37:55.462Z,19.79
2022-08-17T02:38:58.559Z,19.82
2022-08-17T02:40:00.502Z,19.83
2022-08-17T02:41:03.146Z,19.85
2022-08-17T02:42:05.421Z,19.86
2022-08-17T02:43:08.811Z,19.86
2022-08-17T02:44:11.351Z,19.83
2022-08-17T02:45:19.582Z,19.79
2022-08-17T02:46:21.258Z,19.77
2022-08-17T02:47:23.512Z,19.76
2022-08-17T02:48:30.824Z,19.77
2022-08-17T02:49:33.597Z,19.78
2022-08-17T02:50:35.316Z,19.80
2022-08-17T02:51:37.292Z,19.82
2022-08-17T02:52:43.666Z,19.84
2022-08-17T02:53:46.743Z,19.84
2022-08-17T02:54:48.431Z,19.84
2022-08-17T02:55:50.126Z,19.84
2022-08-17T02:56:53.479Z,19.85
2022-08-17T02:57:55.982Z,19.85
2022-08-17T02:58:58.630Z,19.84
2022-08-17T03:00:00.273Z,19.80
2022-08-17T03:01:03.261Z,19.75
2022-08-17T03:02:08.328Z,19.71
2022-08-17T03:03:11.081Z,19.68
2022-08-17T03:04:12.838Z,19.65
2022-08-17T03:05:18.252Z,19.61
2022-08-17T03:06:19.894Z,19.59
2022-08-17T03:07:21.609Z,19.56
2022-08-17T03:08:23.834Z,19.55
2022-08-17T03:09:25.570Z,19.53
2022-08-17T03:10:28.244Z,19.51
2022-08-17T03:11:29.942Z,19.49
2022-08-17T03:12:41.650Z,19.46
2022-08-17T03:13:43.281Z,19.42
2022-08-17T03:14:44.943Z,19.40
2022-08-17T03:15:47.166Z,19.39
2022-08-17T03:16:48.831Z,19.36
2022-08-17T03:17:52.063Z,19.35
2022-08-17T03:18:55.026Z,19.32
2022-08-17T03:19:56.719Z,19.29
2022-08-17T03:21:04.131Z,19.26
2022-08-17T03:22:35.405Z,19.20
2022-08-17T03:23:31.103Z,19.21
2022-08-17T03:24:32.896Z,19.20
2022-08-17T03:25:38.604Z,19.19
2022-08-17T03:26:40.382Z,19.17
2022-08-17T03:27:42.168Z,19.15
2022-08-17T03:28:49.825Z,19.13
2022-08-17T03:29:51.471Z,19.12
2022-08-17T03:30:53.352Z,19.10
2022-08-17T03:31:55.032Z,19.08
2022-08-17T03:33:00.810Z,19.06
2022-08-17T03:34:02.480Z,19.04
2022-08-17T03:35:04.438Z,19.01
2022-08-17T03:36:07.002Z,18.99
2022-08-17T03:37:09.461Z,18.95
2022-08-17T03:38:15.364Z,18.93
2022-08-17T03:39:17.897Z,18.93
2022-08-17T03:40:34.449Z,18.91
2022-08-17T03:41:42.054Z,18.91
2022-08-17T03:42:44.274Z,18.91
2022-08-17T03:43:46.044Z,18.91
2022-08-17T03:44:57.142Z,18.91
2022-08-17T03:46:28.810Z,18.92
2022-08-17T03:47:56.091Z,18.93
2022-08-17T03:49:16.684Z,18.93
2022-08-17T03:50:19.046Z,18.93
2022-08-17T03:51:42.692Z,18.94
2022-08-17T03:53:02.903Z,18.96
2022-08-17T03:54:23.656Z,18.98
2022-08-17T03:55:43.613Z,18.99
2022-08-17T03:56:55.115Z,19.01
2022-08-17T03:57:56.800Z,19.04
2022-08-17T03:58:58.493Z,19.06
2022-08-17T04:00:00.413Z,19.09
2022-08-17T04:01:02.323Z,19.12
2022-08-17T04:02:11.075Z,19.14
2022-08-17T04:03:13.847Z,19.16
2022-08-17T04:04:16.833Z,19.18
2022-08-17T04:05:18.540Z,19.19
2022-08-17T04:06:20.808Z,19.21
2022-08-17T04:07:26.108Z,19.23
2022-08-17T04:08:29.103Z,19.23
2022-08-17T04:09:31.125Z,19.25
2022-08-17T04:10:33.975Z,19.27
2022-08-17T04:11:43.274Z,19.28
2022-08-17T04:12:52.999Z,19.30
2022-08-17T04:13:56.101Z,19.32
2022-08-17T04:14:58.298Z,19.36
2022-08-17T04:16:00.026Z,19.39
2022-08-17T04:17:02.538Z,19.43
2022-08-17T04:18:04.401Z,19.44
2022-08-17T04:19:06.318Z,19.44
2022-08-17T04:20:08.573Z,19.45
2022-08-17T04:21:10.636Z,19.46
2022-08-17T04:22:12.378Z,19.46
2022-08-17T04:23:36.569Z,19.46
2022-08-17T04:24:38.311Z,19.46
2022-08-17T04:25:44.462Z,19.47
2022-08-17T04:26:53.817Z,19.48
2022-08-17T04:27:57.695Z,19.50
2022-08-17T04:28:59.893Z,19.52
2022-08-17T04:30:02.195Z,19.55
2022-08-17T04:31:04.738Z,19.57
2022-08-17T04:32:06.797Z,19.58
2022-08-17T04:33:18.345Z,19.60
2022-08-17T04:34:20.261Z,19.63
2022-08-17T04:35:25.957Z,19.65
2022-08-17T04:36:28.357Z,19.65
2022-08-17T04:37:30.220Z,19.67
2022-08-17T04:38:35.792Z,19.69
2022-08-17T04:39:37.519Z,19.71
2022-08-17T04:40:58.028Z,19.73
2022-08-17T04:42:17.030Z,19.75
2022-08-17T04:43:22.198Z,19.77
2022-08-17T04:44:30.406Z,19.78
2022-08-17T04:45:55.478Z,19.80
2022-08-17T04:46:58.518Z,19.82
2022-08-17T04:48:01.227Z,19.84
2022-08-17T04:49:06.739Z,19.86
2022-08-17T04:50:09.280Z,19.88
2022-08-17T04:51:14.947Z,19.90
2022-08-17T04:52:29.775Z,19.92
2022-08-17T04:53:44.476Z,19.95
2022-08-17T04:54:46.174Z,19.97
2022-08-17T04:55:48.451Z,19.98
2022-08-17T04:56:50.166Z,19.99
2022-08-17T04:57:51.855Z,19.99
2022-08-17T04:58:56.784Z,20.00
2022-08-17T04:59:58.480Z,20.00
2022-08-17T05:01:00.486Z,20.01
2022-08-17T05:02:02.326Z,20.01
2022-08-17T05:03:04.956Z,20.02
2022-08-17T05:04:32.121Z,20.03
2022-08-17T05:05:36.455Z,20.03
2022-08-17T05:06:38.233Z,20.04
2022-08-17T05:07:39.961Z,20.05
2022-08-17T05:08:42.122Z,20.06
2022-08-17T05:09:43.981Z,20.07
2022-08-17T05:10:46.965Z,20.08
2022-08-17T05:11:48.844Z,20.09
2022-08-17T05:13:15.804Z,20.10
2022-08-17T05:14:17.510Z,20.13
2022-08-17T05:15:19.249Z,20.15
2022-08-17T05:16:23.583Z,20.18
2022-08-17T05:17:25.295Z,20.21
2022-08-17T05:18:29.570Z,20.23
2022-08-17T05:19:31.336Z,20.25
2022-08-17T05:20:34.970Z,20.28
2022-08-17T05:21:36.688Z,20.31
2022-08-17T05:22:51.275Z,20.36
2022-08-17T05:23:56.395Z,20.42
2022-08-17T05:24:58.657Z,20.45
2022-08-17T05:26:04.398Z,20.48
2022-08-17T05:27:09.640Z,20.50
2022-08-17T05:28:19.059Z,20.53
2022-08-17T05:29:33.790Z,20.57
2022-08-17T05:30:40.421Z,20.63
2022-08-17T05:31:42.151Z,20.67
2022-08-17T05:33:00.308Z,20.72
2022-08-17T05:34:02.062Z,20.79
2022-08-17T05:35:05.359Z,20.85
2022-08-17T05:36:09.616Z,20.89
2022-08-17T05:37:31.301Z,20.98
2022-08-17T05:38:33.194Z,21.03
2022-08-17T05:39:34.898Z,21.06
2022-08-17T05:40:37.151Z,21.10
2022-08-17T05:41:39.220Z,21.12
2022-08-17T05:42:41.505Z,21.18
2022-08-17T05:43:43.351Z,21.21
2022-08-17T05:44:45.176Z,21.24
2022-08-17T05:46:13.297Z,21.28
2022-08-17T05:47:15.249Z,21.33
2022-08-17T05:48:17.041Z,21.36
2022-08-17T05:49:28.349Z,21.39
2022-08-17T05:50:45.755Z,21.43
2022-08-17T05:52:08.498Z,21.48
2022-08-17T05:53:32.789Z,21.54
2022-08-17T05:54:43.375Z,21.59
2022-08-17T05:56:29.465Z,21.63
2022-08-17T05:57:56.061Z,21.70
2022-08-17T05:59:18.649Z,21.75
2022-08-17T06:00:30.586Z,21.78
2022-08-17T06:01:48.591Z,21.82
2022-08-17T06:02:56.000Z,21.85
2022-08-17T06:04:22.573Z,21.88
2022-08-17T06:05:55.393Z,21.93
2022-08-17T06:07:21.704Z,21.99
2022-08-17T06:08:54.021Z,22.04
2022-08-17T06:10:14.707Z,22.11
2022-08-17T06:11:32.838Z,22.20
2022-08-17T06:12:56.195Z,22.30
2022-08-17T06:14:30.598Z,22.40
2022-08-17T06:15:52.618Z,22.50
2022-08-17T06:17:02.357Z,22.60
2022-08-17T06:18:08.178Z,22.66
2022-08-17T06:19:48.656Z,22.71
2022-08-17T06:20:53.484Z,22.80
2022-08-17T06:21:55.953Z,22.87
2022-08-17T06:23:08.701Z,22.92
2022-08-17T06:24:35.659Z,23.00
2022-08-17T06:25:49.680Z,23.08
2022-08-17T06:26:54.763Z,23.16
2022-08-17T06:28:08.657Z,23.23
2022-08-17T06:29:41.211Z,23.30
2022-08-17T06:31:00.743Z,23.39
2022-08-17T06:32:05.000Z,23.48
2022-08-17T06:33:17.370Z,23.55
2022-08-17T06:34:20.815Z,23.61
2022-08-17T06:35:34.143Z,23.61
2022-08-17T06:36:53.961Z,23.67
2022-08-17T06:38:37.119Z,23.74
2022-08-17T06:39:37.691Z,23.86
2022-08-17T06:41:13.762Z,23.88
2022-08-17T06:43:00.819Z,23.93
2022-08-17T06:44:43.179Z,24.01
2022-08-17T06:46:11.462Z,24.06
2022-08-17T06:47:28.162Z,24.08
2022-08-17T06:49:09.041Z,24.10
2022-08-17T06:50:35.917Z,24.16
2022-08-17T06:51:40.603Z,24.17
2022-08-17T06:52:57.670Z,24.18
2022-08-17T06:54:14.347Z,24.22
2022-08-17T06:55:26.383Z,24.26
2022-08-17T06:56:53.296Z,24.29
2022-08-17T06:58:05.330Z,24.31
2022-08-17T06:59:23.661Z,24.31
2022-08-17T07:00:37.058Z,24.30
2022-08-17T07:01:42.125Z,24.32
2022-08-17T07:02:58.794Z,24.33
2022-08-17T07:04:12.106Z,24.36
2022-08-17T07:05:18.322Z,24.39
2022-08-17T07:06:32.433Z,24.41
2022-08-17T07:08:04.861Z,24.47
2022-08-17T07:09:18.689Z,24.53
2022-08-17T07:10:23.645Z,24.55
2022-08-17T07:11:30.969Z,24.56
2022-08-17T07:12:39.405Z,24.57
2022-08-17T07:14:05.878Z,24.59
2022-08-17T07:15:25.939Z,24.61
2022-08-17T07:16:48.952Z,24.65
2022-08-17T07:17:50.883Z,24.70
2022-08-17T07:18:56.432Z,24.73
2022-08-17T07:20:08.217Z,24.73
2022-08-17T07:21:26.912Z,24.72
2022-08-17T07:23:09.049Z,24.74
2022-08-17T07:24:43.174Z,24.80
2022-08-17T07:25:44.887Z,24.86
2022-08-17T07:26:49.516Z,24.89
2022-08-17T07:27:55.882Z,24.94
2022-08-17T07:29:00.706Z,25.00
2022-08-17T07:30:10.862Z,25.02
2022-08-17T07:31:14.292Z,25.08
2022-08-17T07:32:20.730Z,25.16
2022-08-17T07:33:34.219Z,25.23
2022-08-17T07:35:08.507Z,25.24
2022-08-17T07:36:29.594Z,25.19
2022-08-17T07:37:33.325Z,25.21
2022-08-17T07:38:35.637Z,25.22
2022-08-17T07:39:37.446Z,25.21
2022-08-17T07:41:05.368Z,25.22
2022-08-17T07:42:10.464Z,25.20
2022-08-17T07:43:23.074Z,25.19
2022-08-17T07:44:25.418Z,25.19
2022-08-17T07:45:45.730Z,25.21
2022-08-17T07:47:11.690Z,25.30
2022-08-17T07:48:21.382Z,25.40
2022-08-17T07:49:22.980Z,25.50
2022-08-17T07:50:30.050Z,25.61
2022-08-17T07:51:36.478Z,25.71
2022-08-17T07:52:50.691Z,25.80
2022-08-17T07:54:14.561Z,25.91
2022-08-17T07:55:29.469Z,25.96
2022-08-17T07:56:42.266Z,25.97
2022-08-17T07:57:57.439Z,26.03
2022-08-17T07:59:12.543Z,26.04
2022-08-17T08:00:19.770Z,26.05
2022-08-17T08:01:41.788Z,26.06
2022-08-17T08:02:47.307Z,26.08
2022-08-17T08:03:52.765Z,26.11
2022-08-17T08:05:06.788Z,26.17
2022-08-17T08:06:24.351Z,26.22
2022-08-17T08:07:32.042Z,26.24
2022-08-17T08:08:51.169Z,26.27
2022-08-17T08:10:07.809Z,26.33
2022-08-17T08:11:15.411Z,26.43
2022-08-17T08:12:34.919Z,26.51
2022-08-17T08:13:43.574Z,26.60
2022-08-17T08:14:58.716Z,26.65
2022-08-17T08:16:27.578Z,26.70
2022-08-17T08:17:36.394Z,26.71
2022-08-17T08:18:54.109Z,26.67
2022-08-17T08:20:00.492Z,26.62
2022-08-17T08:21:33.640Z,26.58
2022-08-17T08:22:46.366Z,26.55
2022-08-17T08:23:57.492Z,26.55
2022-08-17T08:25:21.400Z,26.54
2022-08-17T08:26:37.578Z,26.50
2022-08-17T08:27:54.423Z,26.49
2022-08-17T08:29:11.334Z,26.48
2022-08-17T08:30:18.459Z,26.50
2022-08-17T08:31:47.670Z,26.57
2022-08-17T08:33:21.038Z,26.58
2022-08-17T08:35:02.826Z,26.46
2022-08-17T08:36:59.326Z,26.28
2022-08-17T08:38:13.534Z,26.16
2022-08-17T08:39:24.761Z,26.19
2022-08-17T08:40:45.547Z,26.26
2022-08-17T08:42:08.856Z,26.32
2022-08-17T08:43:36.263Z,26.34
2022-08-17T08:45:00.264Z,26.36
2022-08-17T08:46:29.594Z,26.44
2022-08-17T08:47:41.572Z,26.55
2022-08-17T08:49:10.232Z,26.65
2022-08-17T08:50:37.820Z,26.71
2022-08-17T08:51:57.508Z,26.79
2022-08-17T08:53:14.316Z,26.88
2022-08-17T08:54:35.151Z,26.82
2022-08-17T08:55:50.832Z,26.71
2022-08-17T08:57:33.950Z,26.64
2022-08-17T08:58:50.672Z,26.68
2022-08-17T09:00:01.420Z,26.76
2022-08-17T09:01:27.134Z,26.86
2022-08-17T09:03:17.838Z,26.97
2022-08-17T09:05:10.670Z,27.07
2022-08-17T09:06:32.292Z,27.13
2022-08-17T09:08:01.590Z,27.25
2022-08-17T09:09:29.234Z,27.32
2022-08-17T09:10:47.911Z,27.34
2022-08-17T09:12:07.970Z,27.42
2022-08-17T09:13:28.463Z,27.51
2022-08-17T09:15:09.438Z,27.59
2022-08-17T09:16:23.139Z,27.64
2022-08-17T09:17:43.624Z,27.70
2022-08-17T09:19:00.040Z,27.78
2022-08-17T09:20:27.995Z,27.83
2022-08-17T09:21:54.780Z,27.89
2022-08-17T09:23:15.358Z,27.92
2022-08-17T09:24:35.742Z,27.98
2022-08-17T09:25:54.850Z,28.06
2022-08-17T09:27:04.414Z,28.18
2022-08-17T09:28:19.301Z,28.32
2022-08-17T09:29:25.910Z,28.43
2022-08-17T09:30:43.582Z,28.53
2022-08-17T09:31:55.606Z,28.67
2022-08-17T09:33:02.278Z,28.72
2022-08-17T09:34:33.210Z,28.67
2022-08-17T09:35:48.257Z,28.49
2022-08-17T09:36:57.298Z,28.29
2022-08-17T09:38:11.244Z,28.10
2022-08-17T09:39:36.330Z,27.91
2022-08-17T09:40:47.661Z,27.90
2022-08-17T09:42:05.219Z,27.91
2022-08-17T09:43:37.637Z,27.91
2022-08-17T09:45:10.291Z,27.91
2022-08-17T09:46:20.318Z,28.03
2022-08-17T09:47:50.264Z,28.18
2022-08-17T09:49:03.588Z,28.30
2022-08-17T09:51:04.246Z,28.34
2022-08-17T09:51:57.092Z,28.42
2022-08-17T09:52:59.654Z,28.52
2022-08-17T09:54:37.124Z,28.49
2022-08-17T09:55:52.581Z,28.32
2022-08-17T09:57:31.448Z,28.06
2022-08-17T09:58:50.440Z,27.87
2022-08-17T10:00:17.265Z,27.91
2022-08-17T10:01:35.425Z,28.06
2022-08-17T10:03:09.612Z,28.28
2022-08-17T10:04:41.044Z,28.55
2022-08-17T10:05:56.875Z,28.72
2022-08-17T10:07:13.179Z,28.76
2022-08-17T10:08:46.999Z,28.85
2022-08-17T10:10:01.545Z,29.01
2022-08-17T10:11:33.406Z,28.94
2022-08-17T10:12:50.129Z,28.73
2022-08-17T10:14:36.822Z,28.49
2022-08-17T10:15:56.444Z,28.20
2022-08-17T10:17:24.127Z,27.94
2022-08-17T10:18:39.912Z,27.91
2022-08-17T10:20:03.173Z,27.99
2022-08-17T10:21:31.649Z,28.11
2022-08-17T10:23:12.262Z,28.04
2022-08-17T10:25:20.975Z,27.91
2022-08-17T10:26:24.854Z,27.68
2022-08-17T10:27:41.574Z,27.59
2022-08-17T10:29:01.615Z,27.66
2022-08-17T10:30:08.234Z,27.79
2022-08-17T10:31:45.545Z,27.95
2022-08-17T10:33:15.627Z,28.21
2022-08-17T10:34:23.275Z,28.46
2022-08-17T10:35:53.775Z,28.63
2022-08-17T10:37:25.284Z,28.81
2022-08-17T10:38:50.510Z,28.83
2022-08-17T10:39:57.402Z,28.86
2022-08-17T10:41:27.050Z,28.68
2022-08-17T10:42:44.418Z,28.53
2022-08-17T10:43:55.857Z,28.44
2022-08-17T10:45:21.660Z,28.27
2022-08-17T10:46:52.142Z,28.25
2022-08-17T10:48:06.245Z,28.33
2022-08-17T10:49:17.293Z,28.47
2022-08-17T10:50:49.737Z,28.65
2022-08-17T10:51:58.359Z,28.93
2022-08-17T10:53:00.069Z,29.10
2022-08-17T10:54:03.389Z,29.26
2022-08-17T10:55:13.926Z,29.42
2022-08-17T10:56:17.423Z,29.60
2022-08-17T10:57:34.347Z,29.79
2022-08-17T10:58:59.162Z,30.01
2022-08-17T11:00:42.425Z,30.29
2022-08-17T11:02:04.182Z,30.69
2022-08-17T11:03:21.214Z,30.88
2022-08-17T11:04:34.452Z,30.93
2022-08-17T11:05:56.200Z,30.84
2022-08-17T11:07:43.854Z,30.84
2022-08-17T11:09:09.810Z,30.65
2022-08-17T11:10:42.240Z,30.57
2022-08-17T11:12:07.431Z,30.60
2022-08-17T11:13:44.899Z,30.58
2022-08-17T11:15:26.116Z,30.66
2022-08-17T11:16:42.847Z,30.82
2022-08-17T11:18:22.739Z,30.92
2022-08-17T11:19:38.386Z,31.04
2022-08-17T11:21:13.548Z,31.10
2022-08-17T11:23:02.596Z,31.25
2022-08-17T11:24:14.965Z,31.45
2022-08-17T11:25:21.106Z,31.63
2022-08-17T11:26:27.258Z,31.77
2022-08-17T11:27:36.606Z,31.93
2022-08-17T11:28:52.582Z,32.06
2022-08-17T11:30:20.591Z,32.12
2022-08-17T11:31:40.193Z,32.11
2022-08-17T11:32:48.804Z,32.12
2022-08-17T11:34:13.279Z,32.23
2022-08-17T11:35:20.915Z,32.35
2022-08-17T11:36:33.664Z,32.43
2022-08-17T11:38:02.819Z,32.49
2022-08-17T11:39:13.289Z,32.43
2022-08-17T11:40:28.104Z,32.51
2022-08-17T11:41:41.365Z,32.66
2022-08-17T11:43:03.369Z,32.86
2022-08-17T11:44:43.237Z,33.15
2022-08-17T11:45:53.616Z,33.21
2022-08-17T11:47:38.826Z,33.18
2022-08-17T11:49:04.926Z,32.88
2022-08-17T11:50:43.066Z,32.70
2022-08-17T11:52:12.115Z,32.84
2022-08-17T11:53:37.128Z,33.01
2022-08-17T11:54:48.914Z,33.12
2022-08-17T11:55:53.080Z,33.15
2022-08-17T11:56:55.056Z,33.12
2022-08-17T11:58:01.653Z,33.03
2022-08-17T11:59:32.688Z,32.91
2022-08-17T12:00:46.525Z,32.91
2022-08-17T12:01:57.007Z,32.81
2022-08-17T12:03:22.464Z,32.73
2022-08-17T12:04:29.522Z,32.82
2022-08-17T12:05:34.098Z,32.96
2022-08-17T12:06:59.758Z,33.14
2022-08-17T12:08:19.728Z,33.39
2022-08-17T12:09:26.353Z,33.48
2022-08-17T12:10:32.788Z,33.49
2022-08-17T12:12:12.893Z,33.52
2022-08-17T12:13:19.050Z,33.58
2022-08-17T12:15:05.712Z,33.61
2022-08-17T12:15:56.092Z,33.69
2022-08-17T12:17:41.498Z,33.79
2022-08-17T12:18:58.494Z,33.80
2022-08-17T12:20:15.053Z,33.70
2022-08-17T12:21:41.037Z,33.66
2022-08-17T12:23:11.763Z,33.64
2022-08-17T12:24:23.110Z,33.62
2022-08-17T12:25:52.798Z,33.63
2022-08-17T12:27:00.393Z,33.62
2022-08-17T12:28:06.099Z,33.77
2022-08-17T12:29:18.171Z,34.03
2022-08-17T12:30:38.169Z,34.44
2022-08-17T12:31:47.190Z,34.56
2022-08-17T12:32:50.059Z,34.60
2022-08-17T12:33:52.265Z,34.53
2022-08-17T12:34:54.036Z,34.43
2022-08-17T12:36:05.916Z,34.31
2022-08-17T12:37:19.891Z,33.99
2022-08-17T12:38:32.461Z,33.95
2022-08-17T12:39:35.240Z,34.02
2022-08-17T12:40:37.903Z,34.13
2022-08-17T12:41:47.056Z,34.22
2022-08-17T12:43:19.549Z,34.27
2022-08-17T12:44:31.472Z,34.22
2022-08-17T12:45:36.406Z,34.15
2022-08-17T12:47:10.639Z,34.11
2022-08-17T12:48:21.550Z,34.18
2022-08-17T12:49:36.893Z,34.31
2022-08-17T12:50:42.428Z,34.41
2022-08-17T12:51:46.765Z,34.49
2022-08-17T12:52:48.655Z,34.64
2022-08-17T12:53:55.095Z,34.77
2022-08-17T12:55:03.023Z,34.99
2022-08-17T12:56:12.585Z,35.23
2022-08-17T12:57:32.711Z,35.38
2022-08-17T12:58:47.480Z,35.37
2022-08-17T12:59:54.976Z,35.25
2022-08-17T13:01:14.985Z,35.28
2022-08-17T13:02:30.001Z,35.50
2022-08-17T13:03:44.067Z,35.54
2022-08-17T13:04:46.221Z,35.48
2022-08-17T13:05:58.597Z,35.47
2022-08-17T13:07:00.447Z,35.51
2022-08-17T13:08:13.458Z,35.52
2022-08-17T13:09:35.561Z,35.44
2022-08-17T13:10:42.378Z,35.33
2022-08-17T13:11:58.379Z,35.36
2022-08-17T13:13:17.738Z,35.42
2022-08-17T13:14:21.977Z,35.40
2022-08-17T13:15:44.928Z,35.42
2022-08-17T13:16:51.333Z,35.46
2022-08-17T13:18:01.078Z,35.35
2022-08-17T13:19:40.371Z,35.29
2022-08-17T13:20:54.183Z,35.12
2022-08-17T13:22:01.874Z,35.04
2022-08-17T13:23:12.392Z,35.04
2022-08-17T13:24:24.121Z,34.97
2022-08-17T13:25:27.781Z,34.94
2022-08-17T13:26:42.142Z,35.04
2022-08-17T13:27:45.978Z,35.23
2022-08-17T13:28:51.678Z,35.29
2022-08-17T13:29:59.573Z,35.33
2022-08-17T13:31:37.469Z,35.36
2022-08-17T13:32:56.519Z,35.60
2022-08-17T13:34:26.880Z,35.80
2022-08-17T13:35:49.305Z,35.93
2022-08-17T13:37:28.888Z,36.11
2022-08-17T13:38:49.531Z,36.11
2022-08-17T13:39:53.162Z,35.83
2022-08-17T13:40:54.852Z,35.29
2022-08-17T13:41:56.564Z,34.70
2022-08-17T13:42:58.927Z,34.21
2022-08-17T13:44:01.241Z,33.71
2022-08-17T13:45:34.784Z,33.32
2022-08-17T13:46:31.292Z,32.91
2022-08-17T13:47:34.328Z,32.57
2022-08-17T13:48:36.559Z,32.26
2022-08-17T13:49:48.147Z,32.10
2022-08-17T13:50:56.801Z,31.88
2022-08-17T13:51:58.850Z,31.67
2022-08-17T13:53:14.914Z,31.49
2022-08-17T13:54:27.769Z,31.27
2022-08-17T13:55:32.094Z,31.07
2022-08-17T13:56:40.445Z,30.89
2022-08-17T13:57:46.813Z,30.75
2022-08-17T13:59:00.602Z,30.82
2022-08-17T14:00:18.798Z,30.72
2022-08-17T14:01:32.818Z,30.53
2022-08-17T14:02:34.566Z,30.31
2022-08-17T14:03:36.266Z,30.13
2022-08-17T14:04:42.322Z,29.95
2022-08-17T14:05:45.962Z,29.78
2022-08-17T14:07:21.528Z,29.63
2022-08-17T14:08:23.980Z,29.39
2022-08-17T14:09:36.805Z,29.25
2022-08-17T14:10:39.019Z,29.11
2022-08-17T14:11:41.992Z,29.04
2022-08-17T14:12:45.526Z,28.96
2022-08-17T14:13:47.265Z,28.91
2022-08-17T14:14:49.744Z,28.83
2022-08-17T14:15:55.201Z,28.78
2022-08-17T14:16:58.393Z,28.78
2022-08-17T14:18:00.518Z,28.81
2022-08-17T14:19:02.253Z,29.12
2022-08-17T14:20:06.482Z,29.58
2022-08-17T14:21:09.717Z,30.10
2022-08-17T14:22:19.527Z,30.61
2022-08-17T14:23:21.353Z,31.17
2022-08-17T14:24:44.695Z,31.64
2022-08-17T14:25:47.000Z,32.20
2022-08-17T14:26:52.133Z,32.59
2022-08-17T14:27:55.058Z,32.94
2022-08-17T14:28:57.224Z,33.19
2022-08-17T14:30:01.733Z,33.35
2022-08-17T14:31:03.564Z,33.49
2022-08-17T14:32:23.009Z,33.69
2022-08-17T14:33:24.821Z,33.97
2022-08-17T14:34:26.492Z,34.02
2022-08-17T14:35:29.543Z,33.84
2022-08-17T14:36:31.255Z,33.61
2022-08-17T14:37:34.416Z,33.39
2022-08-17T14:38:37.234Z,33.26
2022-08-17T14:39:39.404Z,33.37
2022-08-17T14:40:41.687Z,33.34
2022-08-17T14:41:43.806Z,33.04
2022-08-17T14:42:46.086Z,32.87
2022-08-17T14:43:47.800Z,32.78
2022-08-17T14:44:51.002Z,32.46
2022-08-17T14:45:52.731Z,32.19
2022-08-17T14:46:54.452Z,31.99
2022-08-17T14:47:56.121Z,31.88
2022-08-17T14:48:59.690Z,31.76
2022-08-17T14:50:02.657Z,31.56
2022-08-17T14:51:05.464Z,31.36
2022-08-17T14:52:07.192Z,31.17
2022-08-17T14:53:12.298Z,31.03
2022-08-17T14:54:33.013Z,30.90
2022-08-17T14:55:39.732Z,30.76
2022-08-17T14:56:41.397Z,30.68
2022-08-17T14:57:47.108Z,30.53
2022-08-17T14:58:49.130Z,30.44
2022-08-17T14:59:54.725Z,30.52
2022-08-17T15:00:57.691Z,30.64
2022-08-17T15:02:00.782Z,30.79
2022-08-17T15:03:04.096Z,30.84
2022-08-17T15:04:06.207Z,30.84
2022-08-17T15:05:08.460Z,30.84
2022-08-17T15:06:14.544Z,30.84
2022-08-17T15:07:18.597Z,30.85
2022-08-17T15:08:20.302Z,30.75
2022-08-17T15:09:22.064Z,30.58
2022-08-17T15:10:25.925Z,30.41
2022-08-17T15:11:27.742Z,30.47
2022-08-17T15:12:34.343Z,30.39
2022-08-17T15:13:37.259Z,30.54
2022-08-17T15:14:54.248Z,30.89
2022-08-17T15:15:56.943Z,31.24
2022-08-17T15:16:59.654Z,31.59
2022-08-17T15:18:02.604Z,31.85
2022-08-17T15:19:06.646Z,32.07
2022-08-17T15:20:14.565Z,32.30
2022-08-17T15:21:18.157Z,32.64
2022-08-17T15:22:27.368Z,32.98
2022-08-17T15:23:31.952Z,33.33
2022-08-17T15:24:33.728Z,33.64